Time;durP1;ratioP1;P1;durP2;ratioP2;P2;SDS_P1;SDS_P2;PMS_P1;PMS_P2;Temp;Humidity;BMP_temperature;BMP_pressure;BME280_temperature;BME280_humidity;BME280_pressure;Samples;Min_cycle;Max_cycle;Signal;HPM_P1;HPM_P2
2021/04/02 00:01:23;;;;;;;15.27;9.77;;;;;;;14.01;55.15;99076.19;5020236;28;20683;-88
2021/04/02 00:04:09;;;;;;;16.03;9.17;;;;;;;14.07;54.35;99077.88;5019974;28;20233;-91
2021/04/02 00:06:54;;;;;;;17.30;9.87;;;;;;;14.23;54.81;99092.31;5005978;28;20235;-86
2021/04/02 00:09:39;;;;;;;18.53;9.37;;;;;;;14.17;54.74;99077.97;5035964;28;20228;-88
2021/04/02 00:12:28;;;;;;;14.80;9.17;;;;;;;14.16;56.91;99072.84;5021875;28;20944;-88
2021/04/02 00:15:21;;;;;;;13.93;9.33;;;;;;;14.15;57.42;99074.72;5035825;28;20228;-91
2021/04/02 00:18:14;;;;;;;16.30;9.63;;;;;;;14.21;58.15;99083.66;5007374;28;20228;-87
2021/04/02 00:21:14;;;;;;;15.43;9.70;;;;;;;14.07;60.32;99086.78;4998845;28;20238;-84
2021/04/02 00:24:00;;;;;;;14.57;9.40;;;;;;;13.99;58.45;99073.78;5002595;28;20232;-92
2021/04/02 00:26:58;;;;;;;14.97;8.77;;;;;;;14.05;58.01;99080.00;5048437;28;20236;-89
2021/04/02 00:29:42;;;;;;;11.63;8.67;;;;;;;13.99;59.90;99072.97;5021002;28;20335;-88
2021/04/02 00:32:59;;;;;;;13.27;9.23;;;;;;;13.96;59.98;99081.53;5018155;28;20239;-85
2021/04/02 00:36:13;;;;;;;16.20;8.90;;;;;;;13.91;60.18;99086.88;5010295;28;20283;-92
2021/04/02 00:39:21;;;;;;;14.53;8.83;;;;;;;13.88;58.96;99072.06;5000088;28;20235;-84
2021/04/02 00:42:16;;;;;;;16.07;9.80;;;;;;;13.76;58.87;99057.13;5035137;28;20281;-87
2021/04/02 00:45:45;;;;;;;14.73;9.87;;;;;;;13.76;61.02;99067.88;5036276;28;20226;-90
2021/04/02 00:49:07;;;;;;;15.43;10.47;;;;;;;13.65;62.57;99066.97;5036109;28;20700;-90
2021/04/02 00:52:25;;;;;;;18.23;11.07;;;;;;;13.65;60.95;99072.34;5017530;28;20314;-86
2021/04/02 00:55:32;;;;;;;19.17;11.60;;;;;;;13.74;59.16;99064.63;5009915;28;20585;-83
2021/04/02 00:59:06;;;;;;;14.87;10.20;;;;;;;13.83;58.12;99049.63;5023675;28;20223;-86
2021/04/02 01:02:55;;;;;;;16.97;9.90;;;;;;;13.74;58.47;99054.66;5034613;28;20302;-88
2021/04/02 01:06:35;;;;;;;15.97;10.83;;;;;;;13.76;57.53;99043.66;5034711;28;20230;-88
2021/04/02 01:10:04;;;;;;;15.73;10.27;;;;;;;13.75;58.74;99059.00;5032642;28;20232;-83
2021/04/02 01:13:28;;;;;;;16.67;10.93;;;;;;;13.68;57.94;99056.50;5005326;28;20519;-83
2021/04/02 01:16:51;;;;;;;18.43;11.37;;;;;;;13.63;58.23;99050.25;5034678;28;20304;-88
2021/04/02 01:19:58;;;;;;;18.03;10.53;;;;;;;13.63;58.19;99051.06;5016573;28;20238;-87
2021/04/02 01:23:13;;;;;;;15.80;10.33;;;;;;;13.66;57.44;99034.41;4997228;28;20220;-87
2021/04/02 01:26:58;;;;;;;16.73;9.93;;;;;;;13.74;57.39;99051.97;5027860;28;20324;-85
2021/04/02 01:30:28;;;;;;;13.57;8.50;;;;;;;13.67;57.65;99046.78;5033879;28;20230;-86
2021/04/02 01:33:43;;;;;;;13.67;8.40;;;;;;;13.62;58.01;99054.03;4993530;28;20269;-86
2021/04/02 01:37:10;;;;;;;14.70;8.80;;;;;;;13.50;58.19;99048.75;5030897;28;20234;-87
2021/04/02 01:40:48;;;;;;;13.47;8.13;;;;;;;13.50;58.25;99043.38;5015183;28;20294;-85
2021/04/02 01:44:34;;;;;;;13.10;7.77;;;;;;;13.41;58.79;99039.50;5002793;28;20542;-84
2021/04/02 01:48:18;;;;;;;12.97;8.27;;;;;;;13.30;58.51;99042.34;5013619;28;20246;-84
2021/04/02 01:51:47;;;;;;;14.43;8.27;;;;;;;13.33;58.49;99048.03;5015762;28;20227;-85
2021/04/02 01:59:24;;;;;;;16.10;8.63;;;;;;;13.08;59.80;99045.00;5134191;23;20238;-82
2021/04/02 02:03:26;;;;;;;13.80;9.43;;;;;;;12.97;60.44;99049.41;5031750;28;20220;-79
2021/04/02 02:06:59;;;;;;;10.30;8.33;;;;;;;12.82;60.92;99043.84;4981581;28;20231;-78
2021/04/02 02:10:36;;;;;;;13.43;7.70;;;;;;;12.83;60.61;99048.16;4995655;23;20257;-78
2021/04/02 02:14:21;;;;;;;9.43;7.17;;;;;;;12.89;60.68;99049.03;5018615;28;20254;-79
2021/04/02 02:18:30;;;;;;;12.97;6.87;;;;;;;12.97;60.34;99056.69;5031394;23;20247;-78
2021/04/02 02:22:26;;;;;;;10.13;6.57;;;;;;;13.17;59.79;99057.78;5059444;22;20230;-79
2021/04/02 02:26:34;;;;;;;9.80;6.20;;;;;;;13.31;59.01;99055.53;5157776;23;20244;-78
2021/04/02 02:34:28;;;;;;;9.50;5.27;;;;;;;13.68;58.08;99053.81;4974010;23;20240;-79
2021/04/02 02:38:37;;;;;;;12.37;5.57;;;;;;;13.82;57.28;99064.97;4968879;23;20263;31
2021/04/02 02:42:22;;;;;;;12.43;5.83;;;;;;;13.89;56.55;99072.88;4933425;23;20220;-79
2021/04/02 02:46:12;;;;;;;9.93;5.50;;;;;;;13.95;56.42;99083.41;5019671;23;20262;-79
2021/04/02 02:50:27;;;;;;;12.57;5.83;;;;;;;13.95;56.70;99083.41;5029409;23;20269;-78
2021/04/02 02:54:15;;;;;;;9.37;5.77;;;;;;;13.92;56.12;99081.25;5173776;23;20639;-78
2021/04/02 02:58:05;;;;;;;10.77;6.10;;;;;;;13.92;56.14;99083.94;4985338;28;20234;-78
2021/04/02 03:02:28;;;;;;;9.10;7.07;;;;;;;13.84;56.54;99097.84;5001872;28;20232;-78
2021/04/02 03:06:37;;;;;;;19.50;9.33;;;;;;;13.70;56.96;99090.44;4991461;28;20259;-78
2021/04/02 03:10:10;;;;;;;16.93;9.63;;;;;;;13.65;56.92;99102.78;4928637;29;20217;-78
2021/04/02 03:13:22;;;;;;;17.60;12.80;;;;;;;13.63;56.45;99104.88;4955031;29;20198;-78
2021/04/02 03:17:17;;;;;;;20.20;14.00;;;;;;;13.58;56.42;99110.22;4943215;23;20225;-78
2021/04/02 03:21:31;;;;;;;19.73;13.83;;;;;;;13.47;57.12;99107.66;4941996;23;20247;-78
2021/04/02 03:29:36;;;;;;;21.87;15.63;;;;;;;13.32;57.18;99104.78;5030220;23;20230;-78
2021/04/02 03:33:38;;;;;;;22.67;16.80;;;;;;;13.19;58.15;99106.78;4974078;23;20242;-79
2021/04/02 03:37:36;;;;;;;25.67;17.53;;;;;;;13.06;58.86;99115.19;5041804;23;20253;-78
2021/04/02 03:41:16;;;;;;;23.43;16.90;;;;;;;13.01;58.82;99122.38;5031589;28;20285;-78
2021/04/02 03:44:56;;;;;;;22.93;18.30;;;;;;;12.86;59.15;99120.25;5006031;23;20226;-78
2021/04/02 03:48:20;;;;;;;25.03;18.67;;;;;;;12.80;59.31;99122.06;5021378;23;20234;-78
2021/04/02 03:52:18;;;;;;;26.17;19.73;;;;;;;12.74;59.14;99119.53;5039470;23;20230;-78
2021/04/02 03:55:59;;;;;;;24.43;19.07;;;;;;;12.63;59.95;99120.44;5033288;28;20297;-78
2021/04/02 03:59:54;;;;;;;26.33;19.23;;;;;;;12.31;60.10;99094.16;5017326;28;20219;-78
2021/04/02 04:04:00;;;;;;;24.03;18.13;;;;;;;12.54;59.99;99127.28;5076505;23;20206;-78
2021/04/02 04:07:34;;;;;;;24.07;19.17;;;;;;;12.46;59.90;99133.06;4996958;28;20242;-78
2021/04/02 04:11:18;;;;;;;26.20;19.63;;;;;;;12.56;59.79;99141.28;5042360;23;20229;-78
2021/04/02 04:15:14;;;;;;;28.90;20.63;;;;;;;12.55;59.47;99129.72;4998693;23;20547;-76
2021/04/02 04:19:38;;;;;;;29.00;20.97;;;;;;;12.63;59.39;99158.06;4999921;23;20215;-78
2021/04/02 04:23:38;;;;;;;32.37;23.23;;;;;;;12.64;59.78;99151.63;5039878;23;20583;-78
2021/04/02 04:27:23;;;;;;;32.33;23.90;;;;;;;12.40;60.23;99124.09;5027752;23;20178;-79
2021/04/02 04:35:17;;;;;;;33.13;24.97;;;;;;;12.51;60.78;99168.06;4985712;28;20203;-78
2021/04/02 04:38:38;;;;;;;38.57;26.40;;;;;;;12.46;61.06;99171.47;5015159;23;20234;-78
2021/04/02 04:42:03;;;;;;;36.90;25.87;;;;;;;12.46;60.96;99182.22;4992769;23;20238;-78
2021/04/02 04:49:52;;;;;;;37.40;25.20;;;;;;;12.49;60.82;99194.38;4935230;29;20265;-78
2021/04/02 04:53:58;;;;;;;34.80;26.97;;;;;;;12.48;60.96;99185.50;4938473;29;20215;-78
2021/04/02 04:57:58;;;;;;;36.63;26.87;;;;;;;12.42;61.10;99191.81;4970510;23;20222;-78
2021/04/02 05:02:12;;;;;;;39.97;27.10;;;;;;;12.49;61.05;99214.00;4967917;23;20277;-78
2021/04/02 05:06:08;;;;;;;38.07;28.03;;;;;;;12.46;61.54;99214.47;5040911;23;20269;-78
2021/04/02 05:13:59;;;;;;;35.53;28.17;;;;;;;12.43;61.26;99217.66;5101787;23;20368;-78
2021/04/02 05:18:06;;;;;;;41.73;29.03;;;;;;;12.57;60.85;99231.59;5029591;23;20226;-78
2021/04/02 05:22:36;;;;;;;41.43;30.03;;;;;;;12.50;61.15;99242.50;5009239;23;20218;-78
2021/04/02 05:26:46;;;;;;;41.13;31.20;;;;;;;12.50;60.77;99249.75;5034985;28;20276;-77
2021/04/02 05:30:36;;;;;;;45.27;33.23;;;;;;;12.34;61.14;99230.66;5039536;23;20314;-79
2021/04/02 05:34:00;;;;;;;50.33;35.97;;;;;;;12.27;60.90;99234.56;5039262;23;20234;-78
2021/04/02 05:41:58;;;;;;;49.70;36.00;;;;;;;12.53;60.75;99258.13;5041206;23;20233;-78
2021/04/02 05:45:31;;;;;;;48.63;36.70;;;;;;;12.48;60.62;99259.91;5032841;23;20282;-78
2021/04/02 05:49:02;;;;;;;51.97;35.13;;;;;;;12.65;60.62;99266.13;5009886;23;20218;-78
2021/04/02 05:52:55;;;;;;;49.50;35.90;;;;;;;12.72;60.49;99262.25;5004481;28;20222;-78
2021/04/02 05:57:01;;;;;;;47.50;36.03;;;;;;;12.68;60.51;99258.41;5022740;23;20226;-78
2021/04/02 06:00:53;;;;;;;51.00;34.60;;;;;;;12.70;58.99;99272.41;4998367;28;20198;-78
2021/04/02 06:04:45;;;;;;;49.30;34.93;;;;;;;12.60;58.75;99280.28;5018562;23;20234;-78
2021/04/02 06:08:31;;;;;;;54.43;38.10;;;;;;;12.65;58.61;99282.25;4961406;28;20222;-78
2021/04/02 06:12:45;;;;;;;49.93;35.87;;;;;;;12.92;58.24;99285.16;4993183;28;20223;-78
2021/04/02 06:16:43;;;;;;;50.50;36.03;;;;;;;12.72;58.89;99280.25;4992517;28;20247;-78
2021/04/02 06:24:11;;;;;;;46.77;34.43;;;;;;;12.86;58.60;99288.81;4934323;29;20339;-79
2021/04/02 06:28:22;;;;;;;48.03;35.03;;;;;;;12.60;58.31;99296.41;5047138;23;20242;-80
2021/04/02 06:32:10;;;;;;;50.37;34.60;;;;;;;12.36;58.53;99274.19;4997089;28;20238;-82
2021/04/02 06:36:25;;;;;;;51.13;34.03;;;;;;;12.62;58.68;99297.00;4989359;28;20282;-81
2021/04/02 06:40:49;;;;;;;52.97;35.20;;;;;;;12.69;58.76;99313.00;5022553;23;20227;-78
2021/04/02 06:44:19;;;;;;;50.03;36.60;;;;;;;12.69;59.12;99313.00;5034614;23;20226;-78
2021/04/02 06:52:17;;;;;;;48.23;36.73;;;;;;;12.74;59.06;99315.75;5023703;28;20230;-78
2021/04/02 06:55:57;;;;;;;47.83;34.90;;;;;;;12.92;58.34;99320.13;5033018;28;20211;-78
2021/04/02 06:59:48;;;;;;;48.70;34.80;;;;;;;12.90;58.49;99320.34;4994221;28;20236;-78
2021/04/02 07:04:05;;;;;;;47.83;35.40;;;;;;;12.78;58.59;99325.78;5010880;23;20250;-78
2021/04/02 07:08:23;;;;;;;46.03;34.43;;;;;;;12.70;57.85;99334.22;5091472;23;20233;-78
2021/04/02 07:11:47;;;;;;;47.00;32.13;;;;;;;13.01;57.46;99332.13;4972889;28;20239;-78
2021/04/02 07:14:38;;;;;;;45.57;33.60;;;;;;;12.77;57.34;99347.53;5118185;23;20261;-78
2021/04/02 07:17:51;;;;;;;47.10;33.30;;;;;;;12.63;57.46;99346.19;5036701;23;20233;-78
2021/04/02 07:21:09;;;;;;;43.13;32.53;;;;;;;12.54;57.63;99337.69;5063296;23;20223;-78
2021/04/02 07:24:40;;;;;;;41.20;31.30;;;;;;;12.44;57.45;99355.47;5037252;28;20282;-78
2021/04/02 07:28:18;;;;;;;41.13;30.17;;;;;;;12.56;57.95;99356.25;5037531;23;20234;-78
2021/04/02 07:31:23;;;;;;;42.87;32.00;;;;;;;12.57;58.39;99357.88;5016895;23;20226;-78
2021/04/02 07:34:28;;;;;;;43.03;32.80;;;;;;;12.41;58.58;99364.81;5032999;28;20214;-78
2021/04/02 07:41:22;;;;;;;43.33;33.03;;;;;;;12.21;59.04;99364.41;4922852;23;20217;-79
2021/04/02 07:46:03;;;;;;;43.90;32.73;;;;;;;12.22;59.15;99372.25;4979336;23;20241;-78
2021/04/02 07:49:53;;;;;;;45.07;32.03;;;;;;;12.18;59.92;99384.50;5039912;23;20261;-78
2021/04/02 07:53:54;;;;;;;47.43;32.83;;;;;;;12.09;59.83;99377.03;5099714;23;20566;-77
2021/04/02 07:57:48;;;;;;;47.77;32.77;;;;;;;12.12;59.97;99392.69;4968515;28;20351;-78
2021/04/02 08:01:58;;;;;;;48.60;33.33;;;;;;;12.18;59.88;99397.09;5051014;23;20242;-78
2021/04/02 08:05:25;;;;;;;42.83;31.97;;;;;;;12.03;58.98;99388.72;5014719;28;20234;-78
2021/04/02 08:09:02;;;;;;;43.87;31.17;;;;;;;11.99;59.48;99406.38;5035484;23;20231;-78
2021/04/02 08:13:19;;;;;;;42.10;30.20;;;;;;;12.05;59.36;99408.09;5014828;23;20214;-78
2021/04/02 08:16:55;;;;;;;45.40;31.30;;;;;;;11.99;59.58;99411.72;5022536;23;20253;-78
2021/04/02 08:20:44;;;;;;;41.73;29.60;;;;;;;12.10;59.93;99418.94;5029956;23;20266;-78
2021/04/02 08:24:17;;;;;;;38.00;29.83;;;;;;;12.09;59.99;99407.38;5024173;23;20235;-78
2021/04/02 08:27:35;;;;;;;41.90;30.97;;;;;;;12.22;59.83;99414.41;5045631;23;20431;-78
2021/04/02 08:31:35;;;;;;;36.63;28.30;;;;;;;12.14;60.31;99404.81;5023585;23;20296;-77
2021/04/02 08:35:50;;;;;;;35.30;26.07;;;;;;;12.24;59.86;99406.91;4997412;23;20222;-78
2021/04/02 08:42:50;;;;;;;31.67;24.50;;;;;;;12.67;58.46;99407.28;4982743;28;20231;-80
2021/04/02 08:45:51;;;;;;;33.37;24.00;;;;;;;12.61;57.90;99388.59;5129698;23;20238;-77
2021/04/02 08:53:44;;;;;;;31.17;23.37;;;;;;;13.97;54.49;99399.09;5018517;23;20238;-79
2021/04/02 09:00:40;;;;;;;29.60;22.73;;;;;;;14.22;52.12;99400.53;5030825;28;20298;-79
2021/04/02 09:04:20;;;;;;;33.63;23.60;;;;;;;14.81;51.05;99406.97;5020963;28;20231;-79
2021/04/02 09:08:57;;;;;;;28.90;22.03;;;;;;;14.22;51.96;99406.75;4990941;28;20517;-79
2021/04/02 09:16:35;;;;;;;27.77;21.57;;;;;;;14.06;52.05;99394.09;5031842;28;20223;-79
2021/04/02 09:23:22;;;;;;;27.50;19.07;;;;;;;14.77;48.63;99389.66;5012247;23;20266;-80
2021/04/02 09:30:49;;;;;;;24.80;18.27;;;;;;;15.14;46.65;99396.00;5033263;28;20187;-79
2021/04/02 09:42:17;;;;;;;19.93;16.27;;;;;;;15.98;43.12;99388.09;5022534;28;20206;-79
2021/04/02 09:45:57;;;;;;;20.43;15.40;;;;;;;16.07;42.13;99355.97;5097420;23;20237;-79
2021/04/02 09:50:15;;;;;;;22.03;17.43;;;;;;;16.80;40.83;99383.94;4972941;29;20224;-79
2021/04/02 09:53:33;;;;;;;21.40;16.10;;;;;;;16.50;41.22;99361.06;5002029;23;20239;-79
2021/04/02 09:57:19;;;;;;;25.07;17.57;;;;;;;16.77;40.78;99369.03;5006734;23;20232;-82
2021/04/02 10:01:40;;;;;;;21.80;15.53;;;;;;;16.57;40.54;99353.50;5000373;23;20252;-79
2021/04/02 10:12:47;;;;;;;19.37;15.57;;;;;;;14.91;42.72;99350.44;5007626;23;20723;-79
2021/04/02 10:16:36;;;;;;;20.50;15.80;;;;;;;14.95;43.49;99330.78;4982792;28;21039;-79
2021/04/02 10:20:18;;;;;;;20.70;16.03;;;;;;;15.46;42.14;99333.09;5027298;28;20226;-79
2021/04/02 10:31:46;;;;;;;19.70;14.30;;;;;;;15.55;42.86;99318.09;5048046;23;20230;-79
2021/04/02 10:35:53;;;;;;;21.57;15.07;;;;;;;16.04;40.93;99324.91;4927979;29;20214;-79
2021/04/02 10:43:01;;;;;;;24.27;14.57;;;;;;;17.20;39.78;99320.94;5029710;23;20236;-88
2021/04/02 10:46:11;;;;;;;19.53;14.87;;;;;;;16.68;40.06;99300.28;4986941;28;20238;-90
2021/04/02 10:49:39;;;;;;;18.87;15.27;;;;;;;16.79;39.17;99291.13;4992729;28;20233;-92
2021/04/02 10:52:52;;;;;;;20.00;14.97;;;;;;;17.37;38.54;99310.63;5005521;28;20231;-92
2021/04/02 10:55:49;;;;;;;22.00;15.23;;;;;;;18.15;37.23;99294.81;5018370;28;20230;-91
2021/04/02 10:58:31;;;;;;;17.53;14.10;;;;;;;18.15;36.96;99298.31;5017575;28;20223;-86
2021/04/02 11:01:11;;;;;;;18.83;15.07;;;;;;;18.14;37.02;99276.91;4998153;28;20230;-87
2021/04/02 11:03:54;;;;;;;17.93;15.00;;;;;;;17.52;37.24;99292.50;4987166;28;20229;-86
2021/04/02 11:06:26;;;;;;;18.97;14.77;;;;;;;17.74;36.88;99280.56;5001416;28;20230;-92
2021/04/02 11:08:55;;;;;;;18.97;14.70;;;;;;;17.27;37.69;99289.78;5016915;28;20233;-91
2021/04/02 11:11:32;;;;;;;19.27;15.07;;;;;;;16.99;38.08;99282.19;5019398;28;20302;-93
2021/04/02 11:14:28;;;;;;;20.60;15.33;;;;;;;16.90;38.67;99279.22;5021290;28;20239;-85
2021/04/02 11:17:13;;;;;;;19.13;14.70;;;;;;;17.61;38.54;99281.94;4990063;28;20653;-94
2021/04/02 11:19:40;;;;;;;18.23;14.73;;;;;;;17.93;37.01;99270.75;4982725;28;20535;-92
2021/04/02 11:22:07;;;;;;;19.60;14.70;;;;;;;18.25;36.83;99263.03;4966771;28;20290;-88
2021/04/02 11:24:35;;;;;;;19.67;15.63;;;;;;;17.87;36.61;99269.16;4999540;28;20304;-91
2021/04/02 11:27:03;;;;;;;17.90;14.70;;;;;;;17.50;36.87;99255.91;5017381;28;20233;-90
2021/04/02 11:29:30;;;;;;;22.10;14.93;;;;;;;17.08;37.65;99267.03;5000576;28;20238;-93
2021/04/02 11:31:58;;;;;;;18.60;14.90;;;;;;;16.89;38.28;99257.88;5017004;28;20237;-91
2021/04/02 11:34:26;;;;;;;20.47;15.37;;;;;;;17.24;38.41;99270.56;5017192;28;20589;-90
2021/04/02 11:36:54;;;;;;;17.70;14.17;;;;;;;17.39;38.64;99282.22;4984587;28;20513;-91
2021/04/02 11:39:21;;;;;;;16.87;14.20;;;;;;;17.26;37.79;99261.13;5000403;28;20230;-90
2021/04/02 11:41:48;;;;;;;18.43;15.13;;;;;;;16.75;38.74;99267.59;5009354;28;20272;-89
2021/04/02 11:44:16;;;;;;;17.50;14.07;;;;;;;16.79;38.76;99277.59;4996053;28;20255;-92
2021/04/02 11:46:43;;;;;;;17.77;14.13;;;;;;;16.82;38.65;99246.47;4996186;28;20226;-93
2021/04/02 11:49:11;;;;;;;17.60;14.73;;;;;;;16.56;39.00;99264.53;4980438;28;20238;-91
2021/04/02 11:51:38;;;;;;;18.27;14.00;;;;;;;16.70;39.62;99271.09;4996383;28;20240;-91
2021/04/02 11:54:06;;;;;;;22.40;14.70;;;;;;;16.34;39.57;99251.22;5012450;28;20320;-92
2021/04/02 11:56:34;;;;;;;20.67;15.07;;;;;;;16.45;39.39;99261.00;5012552;28;20642;-91
2021/04/02 11:59:05;;;;;;;17.07;14.47;;;;;;;16.53;39.69;99243.44;4996477;28;20241;-92
2021/04/02 12:01:45;;;;;;;17.17;13.40;;;;;;;16.87;39.96;99233.78;4995709;28;20223;-92
2021/04/02 12:04:25;;;;;;;17.43;13.73;;;;;;;16.63;39.38;99241.59;4992284;28;20223;-94
2021/04/02 12:07:06;;;;;;;17.70;14.03;;;;;;;16.68;39.53;99238.06;4992777;28;20237;-92
2021/04/02 12:09:38;;;;;;;18.20;13.40;;;;;;;16.78;38.86;99239.97;4996624;28;20232;-89
2021/04/02 12:12:18;;;;;;;16.83;13.93;;;;;;;16.84;38.11;99226.22;4993288;28;20230;-95
2021/04/02 12:15:01;;;;;;;16.13;12.93;;;;;;;16.82;38.77;99246.47;4977648;28;20341;-89
2021/04/02 12:25:31;;;;;;;16.47;13.13;;;;;;;16.19;39.96;99216.84;4970671;28;20242;-93
2021/04/02 12:28:08;;;;;;;18.87;14.20;;;;;;;16.27;40.18;99216.34;4978209;28;20589;-92
2021/04/02 12:31:03;;;;;;;16.27;12.70;;;;;;;16.65;39.03;99203.47;4982659;28;20557;-94
2021/04/02 12:33:46;;;;;;;16.87;12.67;;;;;;;16.62;38.98;99201.28;4996764;28;20293;-90
2021/04/02 12:36:25;;;;;;;17.17;12.77;;;;;;;16.50;38.98;99196.13;4989351;28;20242;-92
2021/04/02 12:39:27;;;;;;;16.67;13.03;;;;;;;16.24;38.21;99221.44;4976991;28;20231;-91
2021/04/02 12:42:36;;;;;;;14.03;11.97;;;;;;;16.36;38.55;99210.41;5005849;28;20315;-88
2021/04/02 12:45:12;;;;;;;13.80;12.30;;;;;;;16.59;37.66;99199.13;5021639;28;20534;-88
2021/04/02 12:47:51;;;;;;;16.40;12.30;;;;;;;16.58;38.10;99181.28;5011814;28;20591;-90
2021/04/02 12:50:44;;;;;;;14.60;11.63;;;;;;;16.32;38.51;99187.69;4998244;28;20315;-93
2021/04/02 12:53:35;;;;;;;15.13;12.67;;;;;;;16.60;38.30;99188.03;4996379;28;20255;-89
2021/04/02 12:56:12;;;;;;;15.73;12.87;;;;;;;16.51;38.67;99165.28;4994634;28;20230;-92
2021/04/02 12:58:58;;;;;;;13.77;11.57;;;;;;;16.24;38.43;99172.78;5012458;28;20705;-92
2021/04/02 13:01:39;;;;;;;15.00;11.70;;;;;;;16.21;38.21;99162.53;4997803;28;20228;-81
2021/04/02 13:04:26;;;;;;;15.73;11.87;;;;;;;16.41;37.64;99165.28;5010526;28;20249;-95
2021/04/02 13:07:09;;;;;;;15.60;11.67;;;;;;;16.25;37.17;99161.72;4985418;28;20225;-91
2021/04/02 13:13:37;;;;;;;13.53;11.47;;;;;;;16.88;37.36;99158.81;5001380;28;20241;-94
2021/04/02 13:16:32;;;;;;;17.77;12.10;;;;;;;17.05;36.90;99159.34;4995982;28;20519;-87
2021/04/02 13:19:12;;;;;;;19.03;11.43;;;;;;;17.01;36.44;99150.16;4999918;28;20268;-92
2021/04/02 13:21:54;;;;;;;15.97;11.60;;;;;;;16.92;35.92;99149.09;4996310;28;20230;-91
2021/04/02 13:24:35;;;;;;;15.13;12.03;;;;;;;16.96;36.03;99136.63;4965189;28;20234;-87
2021/04/02 13:27:15;;;;;;;15.77;11.00;;;;;;;17.35;35.68;99126.81;4987661;28;20682;-90
2021/04/02 13:29:50;;;;;;;16.23;11.70;;;;;;;17.16;35.24;99142.81;4997726;28;20321;-91
2021/04/02 13:32:25;;;;;;;18.03;12.33;;;;;;;16.70;36.28;99123.09;4996530;28;20230;-88
2021/04/02 13:35:05;;;;;;;19.37;11.97;;;;;;;16.71;36.70;99123.94;4979404;28;20317;-91
2021/04/02 13:37:46;;;;;;;16.60;12.00;;;;;;;16.91;36.58;99123.09;4983466;28;20253;-83
2021/04/02 13:40:29;;;;;;;14.73;11.40;;;;;;;17.39;35.93;99124.34;4983015;28;20231;-89
2021/04/02 13:43:14;;;;;;;15.47;11.50;;;;;;;17.55;35.03;99107.75;4973615;28;20597;-90
2021/04/02 13:46:03;;;;;;;16.07;10.97;;;;;;;17.73;35.06;99119.09;4966998;28;20310;-86
2021/04/02 13:48:55;;;;;;;13.70;11.10;;;;;;;17.73;35.78;99114.47;4995240;28;20308;-88
2021/04/02 13:51:36;;;;;;;13.50;10.70;;;;;;;17.93;35.54;99114.38;4999685;28;20258;-92
2021/04/02 13:54:11;;;;;;;18.60;11.10;;;;;;;17.52;35.91;99110.22;4979943;28;20327;-88
2021/04/02 13:56:43;;;;;;;12.33;9.33;;;;;;;17.22;35.34;99118.44;4978616;28;20540;-88
2021/04/02 13:59:24;;;;;;;14.50;11.77;;;;;;;16.77;36.48;99103.09;4981981;28;20237;-93
2021/04/02 14:02:10;;;;;;;13.27;11.50;;;;;;;17.02;36.30;99119.31;4982349;28;20241;-85
2021/04/02 14:04:57;;;;;;;16.03;11.53;;;;;;;17.41;35.76;99109.44;4986387;28;20233;-86
2021/04/02 14:07:40;;;;;;;14.37;11.03;;;;;;;17.80;34.89;99114.19;4982811;28;20215;-93
2021/04/02 14:10:36;;;;;;;14.63;11.07;;;;;;;17.56;34.75;99100.44;5003510;28;20226;-95
2021/04/02 14:13:29;;;;;;;12.70;10.77;;;;;;;17.42;34.74;99094.81;5018489;28;20637;-92
2021/04/02 14:16:05;;;;;;;12.27;10.40;;;;;;;17.58;34.46;99095.56;5018447;28;20634;-83
2021/04/02 14:18:38;;;;;;;12.87;10.00;;;;;;;18.06;33.98;99098.59;4992994;28;20242;-90
2021/04/02 14:21:19;;;;;;;13.00;10.63;;;;;;;17.73;33.81;99092.00;5005028;28;20238;-92
2021/04/02 14:24:09;;;;;;;15.17;10.53;;;;;;;17.41;33.99;99068.00;5011709;28;20226;-88
2021/04/02 14:27:09;;;;;;;10.17;9.17;;;;;;;17.39;34.54;99076.41;5003682;28;20318;-89
2021/04/02 14:29:47;;;;;;;15.63;8.80;;;;;;;17.20;35.09;99048.34;4985404;28;20297;-92
2021/04/02 14:32:28;;;;;;;15.00;10.20;;;;;;;16.92;35.65;99057.09;4997800;28;20230;-90
2021/04/02 14:35:03;;;;;;;17.50;9.97;;;;;;;16.91;35.91;99039.22;4966918;28;20314;-90
2021/04/02 14:37:36;;;;;;;12.87;9.17;;;;;;;16.89;34.59;99050.31;4965978;28;20244;-89
2021/04/02 14:40:16;;;;;;;12.43;9.67;;;;;;;17.21;34.40;99063.50;5000358;28;20231;-92
2021/04/02 14:42:52;;;;;;;10.87;9.60;;;;;;;17.19;33.58;99044.00;4984233;28;20250;-91
2021/04/02 14:45:35;;;;;;;9.73;8.67;;;;;;;17.36;33.28;99065.31;4998274;28;20242;-87
2021/04/02 14:48:11;;;;;;;9.40;8.40;;;;;;;17.28;33.45;99055.06;4984395;28;20258;-90
2021/04/02 14:50:45;;;;;;;10.00;7.67;;;;;;;17.18;33.91;99056.72;5001607;28;20533;-88
2021/04/02 14:53:19;;;;;;;8.93;8.03;;;;;;;16.91;34.26;99064.38;4998475;28;20223;-91
2021/04/02 14:55:56;;;;;;;8.73;7.90;;;;;;;17.07;33.53;99067.88;4982981;28;20294;-91
2021/04/02 14:58:41;;;;;;;9.17;8.13;;;;;;;16.99;33.23;99053.00;4976642;28;20226;-82
2021/04/02 15:01:25;;;;;;;9.83;8.67;;;;;;;17.11;33.79;99050.81;4982603;28;20227;-92
2021/04/02 15:04:08;;;;;;;11.10;9.00;;;;;;;16.92;33.44;99038.97;4975521;28;20223;-84
2021/04/02 15:06:47;;;;;;;12.20;8.30;;;;;;;16.64;34.18;99020.63;4986487;28;20233;-90
2021/04/02 15:10:00;;;;;;;9.00;8.10;;;;;;;16.64;35.12;99053.09;5016349;28;20318;-96
2021/04/02 15:13:03;;;;;;;9.53;8.00;;;;;;;16.66;35.35;99050.91;5009947;28;20269;-90
2021/04/02 15:16:29;;;;;;;9.67;7.93;;;;;;;16.12;35.86;99037.94;5000460;28;20229;-84
2021/04/02 15:20:16;;;;;;;10.50;8.50;;;;;;;16.30;35.92;99042.81;5004989;28;20554;-94
2021/04/02 15:23:57;;;;;;;9.10;8.20;;;;;;;16.21;36.54;99049.00;5008311;28;20232;-93
2021/04/02 15:27:43;;;;;;;9.40;8.50;;;;;;;15.78;37.26;99045.72;4968323;29;20191;-80
2021/04/02 15:31:41;;;;;;;9.23;8.33;;;;;;;15.23;37.36;99005.06;4971729;23;20230;-80
2021/04/02 15:36:02;;;;;;;10.20;8.63;;;;;;;15.55;38.22;99031.91;4976011;28;20206;-80
2021/04/02 15:40:00;;;;;;;9.07;8.17;;;;;;;15.42;38.17;99038.59;4986876;23;20237;-80
2021/04/02 15:43:48;;;;;;;10.27;8.90;;;;;;;15.14;38.58;99042.53;5015328;23;20256;-79
2021/04/02 15:51:36;;;;;;;10.43;8.43;;;;;;;14.53;38.99;99026.00;5026389;23;20294;-79
2021/04/02 15:55:22;;;;;;;10.90;8.47;;;;;;;14.57;39.18;99006.63;5111475;23;20199;-79
2021/04/02 15:59:57;;;;;;;8.53;7.63;;;;;;;14.63;39.26;99030.66;4978869;28;20243;-80
2021/04/02 16:03:41;;;;;;;10.93;8.53;;;;;;;14.37;39.33;99028.88;5013146;28;20242;-79
2021/04/02 16:10:48;;;;;;;9.03;7.50;;;;;;;14.17;40.03;99017.91;5040017;23;20282;-80
2021/04/02 16:14:45;;;;;;;9.63;7.87;;;;;;;14.04;40.49;99019.16;5027268;28;20218;-79
2021/04/02 16:17:58;;;;;;;9.00;7.73;;;;;;;13.84;41.23;99018.97;5028416;28;20227;-79
2021/04/02 16:21:33;;;;;;;9.93;8.03;;;;;;;13.71;40.96;99022.06;4995517;28;20235;-79
2021/04/02 16:25:16;;;;;;;9.47;7.90;;;;;;;13.68;41.41;99034.97;5030285;28;20214;-79
2021/04/02 16:31:46;;;;;;;9.33;8.27;;;;;;;13.40;42.24;99032.50;4434868;27;20227784;-79
2021/04/02 16:35:32;;;;;;;10.23;8.40;;;;;;;13.27;42.58;99034.75;5127089;28;20227;-79
2021/04/02 16:38:48;;;;;;;9.10;8.20;;;;;;;13.14;42.89;99028.72;5094961;22;20233;-80
2021/04/02 16:42:36;;;;;;;10.43;8.63;;;;;;;12.82;44.24;99008.09;5089935;23;20224;-79
2021/04/02 16:46:22;;;;;;;9.77;8.40;;;;;;;12.86;44.27;99030.72;5098038;28;20229;-79
2021/04/02 16:49:48;;;;;;;8.93;7.70;;;;;;;12.79;44.28;99028.22;5119305;22;20273;-79
2021/04/02 16:53:00;;;;;;;9.60;7.90;;;;;;;12.70;44.48;99035.06;5072271;28;20242;-79
2021/04/02 16:55:59;;;;;;;8.67;7.77;;;;;;;12.49;44.33;99027.78;5088459;28;20207;-79
2021/04/02 16:58:54;;;;;;;9.90;8.17;;;;;;;12.42;44.96;99033.31;5180067;22;20244;-79
2021/04/02 17:01:51;;;;;;;12.53;8.50;;;;;;;12.26;45.30;99040.34;5083776;28;20254;-79
2021/04/02 17:09:08;;;;;;;11.83;9.67;;;;;;;12.06;46.20;99053.44;5086457;28;20240;-79
2021/04/02 17:20:08;;;;;;;15.17;10.23;;;;;;;11.67;47.89;99073.09;5007639;28;20236;-79
2021/04/02 17:23:50;;;;;;;11.20;9.50;;;;;;;11.42;48.32;99062.69;5339608;22;20195;-80
2021/04/02 17:27:25;;;;;;;12.77;9.87;;;;;;;11.44;48.49;99063.25;5086976;22;20228;-79